sensor_id;sensor_type;location;lat;lon;timestamp;P1;durP1;ratioP1;P2;durP2;ratioP2
3155;SDS011;1588;50.892;7.082;2023-02-22T00:03:35;220.63;;;25.90;;
3155;SDS011;1588;50.892;7.082;2023-02-22T00:08:38;196.83;;;26.17;;
3155;SDS011;1588;50.892;7.082;2023-02-22T00:13:40;217.00;;;21.90;;
3155;SDS011;1588;50.892;7.082;2023-02-22T00:18:46;178.30;;;25.13;;
3155;SDS011;1588;50.892;7.082;2023-02-22T00:23:49;263.63;;;23.37;;
3155;SDS011;1588;50.892;7.082;2023-02-22T00:28:54;110.03;;;17.50;;
3155;SDS011;1588;50.892;7.082;2023-02-22T00:33:58;332.20;;;23.83;;
3155;SDS011;1588;50.892;7.082;2023-02-22T00:39:01;297.17;;;27.73;;
3155;SDS011;1588;50.892;7.082;2023-02-22T00:44:03;330.83;;;25.03;;
3155;SDS011;1588;50.892;7.082;2023-02-22T00:49:07;225.37;;;21.43;;
3155;SDS011;1588;50.892;7.082;2023-02-22T00:54:09;152.10;;;20.47;;
3155;SDS011;1588;50.892;7.082;2023-02-22T00:59:13;261.00;;;22.57;;
3155;SDS011;1588;50.892;7.082;2023-02-22T01:04:18;351.47;;;23.17;;
3155;SDS011;1588;50.892;7.082;2023-02-22T01:09:22;153.50;;;19.70;;
3155;SDS011;1588;50.892;7.082;2023-02-22T01:14:26;140.87;;;17.77;;
3155;SDS011;1588;50.892;7.082;2023-02-22T01:19:31;125.87;;;18.50;;
3155;SDS011;1588;50.892;7.082;2023-02-22T01:24:33;99.63;;;16.90;;
3155;SDS011;1588;50.892;7.082;2023-02-22T01:29:39;90.57;;;17.20;;
3155;SDS011;1588;50.892;7.082;2023-02-22T01:34:43;57.17;;;17.07;;
3155;SDS011;1588;50.892;7.082;2023-02-22T01:39:46;70.57;;;16.37;;
3155;SDS011;1588;50.892;7.082;2023-02-22T01:50:30;102.97;;;19.20;;
3155;SDS011;1588;50.892;7.082;2023-02-22T01:55:36;63.00;;;16.07;;
3155;SDS011;1588;50.892;7.082;2023-02-22T02:00:40;65.07;;;15.80;;
3155;SDS011;1588;50.892;7.082;2023-02-22T02:05:45;80.57;;;18.07;;
3155;SDS011;1588;50.892;7.082;2023-02-22T02:10:50;92.90;;;17.60;;
3155;SDS011;1588;50.892;7.082;2023-02-22T02:15:57;67.40;;;17.17;;
3155;SDS011;1588;50.892;7.082;2023-02-22T02:21:16;119.23;;;17.90;;
3155;SDS011;1588;50.892;7.082;2023-02-22T02:32:22;106.63;;;16.23;;
3155;SDS011;1588;50.892;7.082;2023-02-22T02:37:32;106.30;;;15.77;;
3155;SDS011;1588;50.892;7.082;2023-02-22T02:42:40;101.47;;;16.80;;
3155;SDS011;1588;50.892;7.082;2023-02-22T02:47:48;174.57;;;18.93;;
3155;SDS011;1588;50.892;7.082;2023-02-22T02:52:56;135.07;;;16.40;;
3155;SDS011;1588;50.892;7.082;2023-02-22T02:58:03;40.00;;;15.60;;
3155;SDS011;1588;50.892;7.082;2023-02-22T03:03:16;57.90;;;15.00;;
3155;SDS011;1588;50.892;7.082;2023-02-22T03:08:34;37.17;;;14.80;;
3155;SDS011;1588;50.892;7.082;2023-02-22T03:13:49;36.00;;;13.83;;
3155;SDS011;1588;50.892;7.082;2023-02-22T03:19:08;29.63;;;12.40;;
3155;SDS011;1588;50.892;7.082;2023-02-22T03:24:15;33.23;;;12.07;;
3155;SDS011;1588;50.892;7.082;2023-02-22T03:29:22;32.93;;;13.20;;
3155;SDS011;1588;50.892;7.082;2023-02-22T03:34:31;28.67;;;11.90;;
3155;SDS011;1588;50.892;7.082;2023-02-22T03:39:37;25.47;;;11.50;;
3155;SDS011;1588;50.892;7.082;2023-02-22T03:44:39;26.50;;;11.27;;
3155;SDS011;1588;50.892;7.082;2023-02-22T03:49:45;26.87;;;10.47;;
3155;SDS011;1588;50.892;7.082;2023-02-22T03:54:51;23.60;;;10.27;;
3155;SDS011;1588;50.892;7.082;2023-02-22T03:59:54;28.67;;;11.73;;
3155;SDS011;1588;50.892;7.082;2023-02-22T04:04:58;32.07;;;13.07;;
3155;SDS011;1588;50.892;7.082;2023-02-22T04:10:00;24.20;;;11.10;;
3155;SDS011;1588;50.892;7.082;2023-02-22T04:15:04;25.13;;;10.53;;
3155;SDS011;1588;50.892;7.082;2023-02-22T04:20:10;32.10;;;11.43;;
3155;SDS011;1588;50.892;7.082;2023-02-22T04:25:18;21.57;;;11.03;;
3155;SDS011;1588;50.892;7.082;2023-02-22T04:30:21;20.80;;;10.60;;
3155;SDS011;1588;50.892;7.082;2023-02-22T04:35:30;30.93;;;11.60;;
3155;SDS011;1588;50.892;7.082;2023-02-22T04:40:33;31.67;;;11.37;;
3155;SDS011;1588;50.892;7.082;2023-02-22T04:45:35;26.63;;;11.17;;
3155;SDS011;1588;50.892;7.082;2023-02-22T04:50:39;25.80;;;10.50;;
3155;SDS011;1588;50.892;7.082;2023-02-22T04:55:42;30.57;;;12.60;;
3155;SDS011;1588;50.892;7.082;2023-02-22T05:00:44;31.33;;;12.33;;
3155;SDS011;1588;50.892;7.082;2023-02-22T05:05:50;32.03;;;12.77;;
3155;SDS011;1588;50.892;7.082;2023-02-22T05:10:58;31.40;;;12.83;;
3155;SDS011;1588;50.892;7.082;2023-02-22T05:16:11;26.70;;;12.83;;
3155;SDS011;1588;50.892;7.082;2023-02-22T05:21:19;28.90;;;11.80;;
3155;SDS011;1588;50.892;7.082;2023-02-22T05:26:25;29.13;;;12.40;;
3155;SDS011;1588;50.892;7.082;2023-02-22T05:31:31;35.23;;;13.27;;
3155;SDS011;1588;50.892;7.082;2023-02-22T05:36:38;31.53;;;12.07;;
3155;SDS011;1588;50.892;7.082;2023-02-22T05:41:40;29.17;;;11.53;;
3155;SDS011;1588;50.892;7.082;2023-02-22T05:46:42;35.50;;;11.90;;
3155;SDS011;1588;50.892;7.082;2023-02-22T05:51:46;28.20;;;11.90;;
3155;SDS011;1588;50.892;7.082;2023-02-22T05:56:51;23.60;;;11.00;;
3155;SDS011;1588;50.892;7.082;2023-02-22T06:01:53;27.40;;;11.83;;
3155;SDS011;1588;50.892;7.082;2023-02-22T06:06:57;23.90;;;10.50;;
3155;SDS011;1588;50.892;7.082;2023-02-22T06:12:00;28.87;;;11.33;;
3155;SDS011;1588;50.892;7.082;2023-02-22T06:17:04;25.17;;;11.13;;
3155;SDS011;1588;50.892;7.082;2023-02-22T06:22:13;27.57;;;11.67;;
3155;SDS011;1588;50.892;7.082;2023-02-22T06:27:25;28.00;;;10.77;;
3155;SDS011;1588;50.892;7.082;2023-02-22T06:32:31;22.97;;;10.20;;
3155;SDS011;1588;50.892;7.082;2023-02-22T06:37:35;30.20;;;11.20;;
3155;SDS011;1588;50.892;7.082;2023-02-22T06:42:38;34.23;;;11.97;;
3155;SDS011;1588;50.892;7.082;2023-02-22T06:47:41;27.50;;;11.53;;
3155;SDS011;1588;50.892;7.082;2023-02-22T06:52:54;27.17;;;11.40;;
3155;SDS011;1588;50.892;7.082;2023-02-22T06:57:57;30.50;;;13.10;;
3155;SDS011;1588;50.892;7.082;2023-02-22T07:03:04;33.70;;;12.57;;
3155;SDS011;1588;50.892;7.082;2023-02-22T07:08:08;30.20;;;11.00;;
3155;SDS011;1588;50.892;7.082;2023-02-22T07:13:11;24.77;;;11.03;;
3155;SDS011;1588;50.892;7.082;2023-02-22T07:18:14;32.87;;;12.37;;
3155;SDS011;1588;50.892;7.082;2023-02-22T07:23:18;32.27;;;11.13;;
3155;SDS011;1588;50.892;7.082;2023-02-22T07:28:22;32.00;;;11.67;;
3155;SDS011;1588;50.892;7.082;2023-02-22T07:33:25;31.20;;;12.93;;
3155;SDS011;1588;50.892;7.082;2023-02-22T07:38:28;39.33;;;14.00;;
3155;SDS011;1588;50.892;7.082;2023-02-22T07:43:31;34.53;;;13.20;;
3155;SDS011;1588;50.892;7.082;2023-02-22T07:48:33;35.87;;;14.10;;
3155;SDS011;1588;50.892;7.082;2023-02-22T07:53:37;38.10;;;15.73;;
3155;SDS011;1588;50.892;7.082;2023-02-22T07:58:39;33.27;;;14.60;;
3155;SDS011;1588;50.892;7.082;2023-02-22T08:03:41;42.60;;;17.47;;
3155;SDS011;1588;50.892;7.082;2023-02-22T08:08:48;39.27;;;15.80;;
3155;SDS011;1588;50.892;7.082;2023-02-22T08:13:50;54.33;;;18.37;;
3155;SDS011;1588;50.892;7.082;2023-02-22T08:18:53;52.10;;;19.80;;
3155;SDS011;1588;50.892;7.082;2023-02-22T08:23:56;51.07;;;19.87;;
3155;SDS011;1588;50.892;7.082;2023-02-22T08:28:59;49.20;;;19.53;;
3155;SDS011;1588;50.892;7.082;2023-02-22T08:34:01;50.40;;;17.43;;
3155;SDS011;1588;50.892;7.082;2023-02-22T08:39:05;41.10;;;16.27;;
3155;SDS011;1588;50.892;7.082;2023-02-22T08:44:07;39.93;;;15.20;;
3155;SDS011;1588;50.892;7.082;2023-02-22T08:49:10;41.77;;;15.40;;
3155;SDS011;1588;50.892;7.082;2023-02-22T08:54:13;49.00;;;16.20;;
3155;SDS011;1588;50.892;7.082;2023-02-22T08:59:17;28.40;;;14.53;;
3155;SDS011;1588;50.892;7.082;2023-02-22T09:04:19;32.33;;;15.20;;
3155;SDS011;1588;50.892;7.082;2023-02-22T09:09:23;25.67;;;12.23;;
3155;SDS011;1588;50.892;7.082;2023-02-22T09:14:25;29.87;;;13.37;;
3155;SDS011;1588;50.892;7.082;2023-02-22T09:19:27;31.60;;;13.07;;
3155;SDS011;1588;50.892;7.082;2023-02-22T09:24:31;34.50;;;13.27;;
3155;SDS011;1588;50.892;7.082;2023-02-22T09:29:34;26.10;;;13.07;;
3155;SDS011;1588;50.892;7.082;2023-02-22T09:34:46;31.47;;;13.53;;
3155;SDS011;1588;50.892;7.082;2023-02-22T09:39:50;29.43;;;12.97;;
3155;SDS011;1588;50.892;7.082;2023-02-22T09:44:53;27.17;;;10.83;;
3155;SDS011;1588;50.892;7.082;2023-02-22T09:50:02;26.13;;;12.43;;
3155;SDS011;1588;50.892;7.082;2023-02-22T09:55:19;27.20;;;12.63;;
3155;SDS011;1588;50.892;7.082;2023-02-22T10:00:34;29.20;;;12.83;;
3155;SDS011;1588;50.892;7.082;2023-02-22T10:05:46;25.40;;;11.50;;
3155;SDS011;1588;50.892;7.082;2023-02-22T10:10:56;27.77;;;11.20;;
3155;SDS011;1588;50.892;7.082;2023-02-22T10:16:06;22.60;;;11.23;;
3155;SDS011;1588;50.892;7.082;2023-02-22T10:21:22;28.07;;;10.70;;
3155;SDS011;1588;50.892;7.082;2023-02-22T10:26:42;25.63;;;10.63;;
3155;SDS011;1588;50.892;7.082;2023-02-22T10:31:47;23.97;;;10.30;;
3155;SDS011;1588;50.892;7.082;2023-02-22T10:36:58;23.07;;;11.60;;
3155;SDS011;1588;50.892;7.082;2023-02-22T10:42:10;20.90;;;9.60;;
3155;SDS011;1588;50.892;7.082;2023-02-22T10:47:13;19.80;;;9.77;;
3155;SDS011;1588;50.892;7.082;2023-02-22T10:52:18;22.90;;;9.70;;
3155;SDS011;1588;50.892;7.082;2023-02-22T10:57:28;18.50;;;9.07;;
3155;SDS011;1588;50.892;7.082;2023-02-22T11:02:33;15.43;;;8.30;;
3155;SDS011;1588;50.892;7.082;2023-02-22T11:07:41;12.10;;;6.97;;
3155;SDS011;1588;50.892;7.082;2023-02-22T11:12:45;12.27;;;7.00;;
3155;SDS011;1588;50.892;7.082;2023-02-22T11:17:52;15.53;;;7.50;;
3155;SDS011;1588;50.892;7.082;2023-02-22T11:22:57;13.17;;;7.70;;
3155;SDS011;1588;50.892;7.082;2023-02-22T11:28:08;14.23;;;7.03;;
3155;SDS011;1588;50.892;7.082;2023-02-22T11:33:16;15.10;;;7.13;;
3155;SDS011;1588;50.892;7.082;2023-02-22T11:38:23;14.03;;;7.27;;
3155;SDS011;1588;50.892;7.082;2023-02-22T11:43:28;16.73;;;8.03;;
3155;SDS011;1588;50.892;7.082;2023-02-22T11:48:31;16.00;;;7.17;;
3155;SDS011;1588;50.892;7.082;2023-02-22T11:53:41;14.80;;;7.30;;
3155;SDS011;1588;50.892;7.082;2023-02-22T11:58:58;13.70;;;7.13;;
3155;SDS011;1588;50.892;7.082;2023-02-22T12:04:14;16.77;;;8.00;;
3155;SDS011;1588;50.892;7.082;2023-02-22T12:09:35;21.07;;;7.77;;
3155;SDS011;1588;50.892;7.082;2023-02-22T12:14:45;15.90;;;7.57;;
3155;SDS011;1588;50.892;7.082;2023-02-22T12:19:53;17.40;;;8.20;;
3155;SDS011;1588;50.892;7.082;2023-02-22T12:25:02;15.80;;;8.60;;
3155;SDS011;1588;50.892;7.082;2023-02-22T12:30:14;16.77;;;7.90;;
3155;SDS011;1588;50.892;7.082;2023-02-22T12:35:31;15.03;;;8.67;;
3155;SDS011;1588;50.892;7.082;2023-02-22T12:40:36;13.60;;;7.57;;
3155;SDS011;1588;50.892;7.082;2023-02-22T12:45:47;16.60;;;8.73;;
3155;SDS011;1588;50.892;7.082;2023-02-22T12:50:57;15.80;;;7.07;;
3155;SDS011;1588;50.892;7.082;2023-02-22T12:56:09;13.27;;;6.33;;
3155;SDS011;1588;50.892;7.082;2023-02-22T13:01:26;18.20;;;6.90;;
3155;SDS011;1588;50.892;7.082;2023-02-22T13:06:35;19.37;;;8.20;;
3155;SDS011;1588;50.892;7.082;2023-02-22T13:11:51;12.93;;;6.53;;
3155;SDS011;1588;50.892;7.082;2023-02-22T13:17:07;11.20;;;6.23;;
3155;SDS011;1588;50.892;7.082;2023-02-22T13:22:22;12.20;;;6.37;;
3155;SDS011;1588;50.892;7.082;2023-02-22T13:27:33;12.53;;;5.93;;
3155;SDS011;1588;50.892;7.082;2023-02-22T13:32:47;20.03;;;6.63;;
3155;SDS011;1588;50.892;7.082;2023-02-22T13:38:03;10.60;;;6.23;;
3155;SDS011;1588;50.892;7.082;2023-02-22T13:43:25;15.20;;;6.80;;
3155;SDS011;1588;50.892;7.082;2023-02-22T13:48:55;11.60;;;5.50;;
3155;SDS011;1588;50.892;7.082;2023-02-22T13:54:15;16.43;;;6.10;;
3155;SDS011;1588;50.892;7.082;2023-02-22T13:59:29;12.53;;;6.77;;
3155;SDS011;1588;50.892;7.082;2023-02-22T14:04:41;13.27;;;6.93;;
3155;SDS011;1588;50.892;7.082;2023-02-22T14:09:45;16.80;;;6.50;;
3155;SDS011;1588;50.892;7.082;2023-02-22T14:20:20;24.07;;;6.73;;
3155;SDS011;1588;50.892;7.082;2023-02-22T14:25:33;11.60;;;6.33;;
3155;SDS011;1588;50.892;7.082;2023-02-22T14:30:42;13.23;;;5.20;;
3155;SDS011;1588;50.892;7.082;2023-02-22T14:35:46;13.03;;;6.37;;
3155;SDS011;1588;50.892;7.082;2023-02-22T14:40:50;10.10;;;5.23;;
3155;SDS011;1588;50.892;7.082;2023-02-22T14:45:55;11.60;;;6.30;;
3155;SDS011;1588;50.892;7.082;2023-02-22T14:51:04;14.60;;;6.10;;
3155;SDS011;1588;50.892;7.082;2023-02-22T14:56:14;9.80;;;5.20;;
3155;SDS011;1588;50.892;7.082;2023-02-22T15:01:23;10.67;;;6.17;;
3155;SDS011;1588;50.892;7.082;2023-02-22T15:06:31;15.17;;;6.20;;
3155;SDS011;1588;50.892;7.082;2023-02-22T15:11:34;10.53;;;5.10;;
3155;SDS011;1588;50.892;7.082;2023-02-22T15:16:39;12.40;;;5.40;;
3155;SDS011;1588;50.892;7.082;2023-02-22T15:21:49;8.27;;;4.43;;
3155;SDS011;1588;50.892;7.082;2023-02-22T15:26:53;10.13;;;4.90;;
3155;SDS011;1588;50.892;7.082;2023-02-22T15:31:56;9.03;;;5.10;;
3155;SDS011;1588;50.892;7.082;2023-02-22T15:37:13;10.67;;;4.90;;
3155;SDS011;1588;50.892;7.082;2023-02-22T15:42:24;9.53;;;4.83;;
3155;SDS011;1588;50.892;7.082;2023-02-22T15:47:33;12.13;;;5.13;;
3155;SDS011;1588;50.892;7.082;2023-02-22T15:52:40;11.20;;;5.43;;
3155;SDS011;1588;50.892;7.082;2023-02-22T15:57:49;13.27;;;5.90;;
3155;SDS011;1588;50.892;7.082;2023-02-22T16:02:52;12.63;;;6.87;;
3155;SDS011;1588;50.892;7.082;2023-02-22T16:07:59;9.70;;;4.87;;
3155;SDS011;1588;50.892;7.082;2023-02-22T16:13:04;13.03;;;6.60;;
3155;SDS011;1588;50.892;7.082;2023-02-22T16:18:16;11.20;;;5.70;;
3155;SDS011;1588;50.892;7.082;2023-02-22T16:23:28;14.40;;;6.43;;
3155;SDS011;1588;50.892;7.082;2023-02-22T16:28:34;14.77;;;7.13;;
3155;SDS011;1588;50.892;7.082;2023-02-22T16:33:36;14.00;;;7.00;;
3155;SDS011;1588;50.892;7.082;2023-02-22T16:38:41;15.60;;;7.80;;
3155;SDS011;1588;50.892;7.082;2023-02-22T16:43:47;14.87;;;7.07;;
3155;SDS011;1588;50.892;7.082;2023-02-22T16:48:51;12.87;;;7.30;;
3155;SDS011;1588;50.892;7.082;2023-02-22T16:54:01;16.50;;;7.40;;
3155;SDS011;1588;50.892;7.082;2023-02-22T16:59:04;17.80;;;7.90;;
3155;SDS011;1588;50.892;7.082;2023-02-22T17:04:16;19.70;;;8.90;;
3155;SDS011;1588;50.892;7.082;2023-02-22T17:09:21;20.17;;;9.47;;
3155;SDS011;1588;50.892;7.082;2023-02-22T17:14:33;17.37;;;9.37;;
3155;SDS011;1588;50.892;7.082;2023-02-22T17:19:36;20.23;;;9.10;;
3155;SDS011;1588;50.892;7.082;2023-02-22T17:24:40;18.10;;;9.63;;
3155;SDS011;1588;50.892;7.082;2023-02-22T17:29:42;25.53;;;9.40;;
3155;SDS011;1588;50.892;7.082;2023-02-22T17:34:45;20.40;;;10.23;;
3155;SDS011;1588;50.892;7.082;2023-02-22T17:39:48;16.43;;;8.93;;
3155;SDS011;1588;50.892;7.082;2023-02-22T17:44:51;14.37;;;8.10;;
3155;SDS011;1588;50.892;7.082;2023-02-22T17:49:53;20.97;;;10.07;;
3155;SDS011;1588;50.892;7.082;2023-02-22T17:54:58;20.80;;;9.20;;
3155;SDS011;1588;50.892;7.082;2023-02-22T18:00:01;15.83;;;8.87;;
3155;SDS011;1588;50.892;7.082;2023-02-22T18:05:12;18.33;;;9.27;;
3155;SDS011;1588;50.892;7.082;2023-02-22T18:10:17;23.27;;;9.20;;
3155;SDS011;1588;50.892;7.082;2023-02-22T18:15:20;18.83;;;8.93;;
3155;SDS011;1588;50.892;7.082;2023-02-22T18:20:22;18.53;;;9.40;;
3155;SDS011;1588;50.892;7.082;2023-02-22T18:25:45;24.33;;;8.67;;
3155;SDS011;1588;50.892;7.082;2023-02-22T18:30:51;17.10;;;7.90;;
3155;SDS011;1588;50.892;7.082;2023-02-22T18:35:53;14.27;;;6.90;;
3155;SDS011;1588;50.892;7.082;2023-02-22T18:41:01;9.83;;;5.93;;
3155;SDS011;1588;50.892;7.082;2023-02-22T18:46:06;15.40;;;6.67;;
3155;SDS011;1588;50.892;7.082;2023-02-22T18:51:11;15.23;;;7.60;;
3155;SDS011;1588;50.892;7.082;2023-02-22T18:56:28;18.17;;;6.80;;
3155;SDS011;1588;50.892;7.082;2023-02-22T19:01:30;14.23;;;7.03;;
3155;SDS011;1588;50.892;7.082;2023-02-22T19:06:37;12.03;;;6.10;;
3155;SDS011;1588;50.892;7.082;2023-02-22T19:11:41;18.33;;;8.47;;
3155;SDS011;1588;50.892;7.082;2023-02-22T19:16:47;24.83;;;11.13;;
3155;SDS011;1588;50.892;7.082;2023-02-22T19:21:59;23.93;;;11.57;;
3155;SDS011;1588;50.892;7.082;2023-02-22T19:27:03;22.83;;;12.03;;
3155;SDS011;1588;50.892;7.082;2023-02-22T19:32:06;27.63;;;11.47;;
3155;SDS011;1588;50.892;7.082;2023-02-22T19:37:10;29.50;;;11.40;;
3155;SDS011;1588;50.892;7.082;2023-02-22T19:42:14;18.40;;;9.47;;
3155;SDS011;1588;50.892;7.082;2023-02-22T19:47:17;23.57;;;11.07;;
3155;SDS011;1588;50.892;7.082;2023-02-22T19:52:22;26.83;;;11.60;;
3155;SDS011;1588;50.892;7.082;2023-02-22T19:57:25;26.27;;;11.90;;
3155;SDS011;1588;50.892;7.082;2023-02-22T20:02:29;33.40;;;12.37;;
3155;SDS011;1588;50.892;7.082;2023-02-22T20:07:31;23.67;;;12.07;;
3155;SDS011;1588;50.892;7.082;2023-02-22T20:12:35;23.67;;;11.90;;
3155;SDS011;1588;50.892;7.082;2023-02-22T20:17:39;23.97;;;12.17;;
3155;SDS011;1588;50.892;7.082;2023-02-22T20:22:42;33.40;;;14.20;;
3155;SDS011;1588;50.892;7.082;2023-02-22T20:27:46;27.13;;;12.77;;
3155;SDS011;1588;50.892;7.082;2023-02-22T20:32:49;39.63;;;13.90;;
3155;SDS011;1588;50.892;7.082;2023-02-22T20:37:52;38.03;;;13.50;;
3155;SDS011;1588;50.892;7.082;2023-02-22T20:42:56;30.17;;;15.40;;
3155;SDS011;1588;50.892;7.082;2023-02-22T20:47:58;34.30;;;16.43;;
3155;SDS011;1588;50.892;7.082;2023-02-22T20:53:01;39.20;;;16.30;;
3155;SDS011;1588;50.892;7.082;2023-02-22T20:58:04;44.87;;;18.67;;
3155;SDS011;1588;50.892;7.082;2023-02-22T21:03:08;38.07;;;17.57;;
3155;SDS011;1588;50.892;7.082;2023-02-22T21:08:10;39.50;;;18.83;;
3155;SDS011;1588;50.892;7.082;2023-02-22T21:13:16;42.53;;;19.37;;
3155;SDS011;1588;50.892;7.082;2023-02-22T21:18:19;40.63;;;19.90;;
3155;SDS011;1588;50.892;7.082;2023-02-22T21:23:21;43.30;;;20.73;;
3155;SDS011;1588;50.892;7.082;2023-02-22T21:28:25;46.00;;;20.37;;
3155;SDS011;1588;50.892;7.082;2023-02-22T21:33:28;47.10;;;21.03;;
3155;SDS011;1588;50.892;7.082;2023-02-22T21:38:32;48.20;;;22.60;;
3155;SDS011;1588;50.892;7.082;2023-02-22T21:43:36;48.63;;;20.37;;
3155;SDS011;1588;50.892;7.082;2023-02-22T21:48:40;44.40;;;22.10;;
3155;SDS011;1588;50.892;7.082;2023-02-22T21:53:45;45.60;;;21.60;;
3155;SDS011;1588;50.892;7.082;2023-02-22T21:58:53;51.77;;;23.87;;
3155;SDS011;1588;50.892;7.082;2023-02-22T22:03:59;44.57;;;21.67;;
3155;SDS011;1588;50.892;7.082;2023-02-22T22:09:03;46.53;;;23.43;;
3155;SDS011;1588;50.892;7.082;2023-02-22T22:14:20;51.13;;;23.50;;
3155;SDS011;1588;50.892;7.082;2023-02-22T22:19:24;52.33;;;23.00;;
3155;SDS011;1588;50.892;7.082;2023-02-22T22:24:35;53.10;;;25.50;;
3155;SDS011;1588;50.892;7.082;2023-02-22T22:29:42;55.17;;;25.57;;
3155;SDS011;1588;50.892;7.082;2023-02-22T22:34:44;55.20;;;24.17;;
3155;SDS011;1588;50.892;7.082;2023-02-22T22:39:48;49.33;;;23.87;;
3155;SDS011;1588;50.892;7.082;2023-02-22T22:44:52;55.63;;;26.30;;
3155;SDS011;1588;50.892;7.082;2023-02-22T22:49:54;56.27;;;25.50;;
3155;SDS011;1588;50.892;7.082;2023-02-22T22:55:01;51.60;;;26.07;;
3155;SDS011;1588;50.892;7.082;2023-02-22T23:00:09;55.73;;;25.63;;
3155;SDS011;1588;50.892;7.082;2023-02-22T23:05:36;50.77;;;25.00;;
3155;SDS011;1588;50.892;7.082;2023-02-22T23:10:41;56.70;;;26.70;;
3155;SDS011;1588;50.892;7.082;2023-02-22T23:15:45;59.63;;;25.77;;
3155;SDS011;1588;50.892;7.082;2023-02-22T23:20:48;58.07;;;25.47;;
3155;SDS011;1588;50.892;7.082;2023-02-22T23:26:05;60.03;;;24.53;;
3155;SDS011;1588;50.892;7.082;2023-02-22T23:31:16;64.60;;;25.40;;
3155;SDS011;1588;50.892;7.082;2023-02-22T23:36:19;60.40;;;25.30;;
3155;SDS011;1588;50.892;7.082;2023-02-22T23:41:21;65.07;;;28.47;;
3155;SDS011;1588;50.892;7.082;2023-02-22T23:46:26;61.03;;;28.30;;
3155;SDS011;1588;50.892;7.082;2023-02-22T23:51:32;61.00;;;27.43;;
3155;SDS011;1588;50.892;7.082;2023-02-22T23:56:38;63.93;;;27.93;;
